Pagrindinis puslapis
METAR-TAF:

METAR-TAF

Oro uostai :

Waco, Teksasas, Jungtinės Amerikos Valstijos

platuma: 31-37-02N, ilguma: 097-13-40W, Aukštis: 157 m

Dabartinis oras

Ataskaita buvo paskelbta 33 minutes, ne 12:51 UTC
Vėjas 3 kt iš Pietų/Pietvakarių
Temperatūra 9°C
Drėgmė 87%
Slėgis 1020 hPa
Matomumas: 16.1 km
Apsiniaukę ne aukštis 12000 ft

METAR: KACT 191251Z 20003KT 10SM OVC120 09/07 A3012 RMK AO2 SLP198 T00890072

Laikas: 08:24 (13:24 UTC)

Prognozė

Ataskaita buvo paskelbta 2 valandos ir 4 minutes, ne 11:20 UTC
Prognozė galioja nuo 19 metu 12 UTC su 20 metu 12 UTC
Vėjas 4 kt iš Vakarų/Pietvakarių
Matomumas: 10 km
Mažai debesys ne aukštis 10000 ft
Mažai debesys ne aukštis 25000 ft
Nuo 19 metu 1600 UTC
Vėjas 7 kt iš Pietų/Pietvakarių
Matomumas: 10 km
Išsisklaidę debesys ne aukštis 12000 ft
Su prošvaistėmis ne aukštis 25000 ft

TAF: KACT 191120Z 1912/2012 24004KT P6SM FEW100 FEW250 FM191600 20007KT P6SM SCT120 BKN250

Orai ataskaitas ir orų prognozės (METAR, TAF).

turimą stotys yra geltonos ir raudonos taškus žemėlapyje.

Perkelti pele per norėdami pamatyti stoties vardą.

Tada spustelėkite, norėdami matyti oro stebėjimo ir prognozės.

Norėdami pakeisti žemėlapį: spustelėkite ant žalios mygtukų su juodo kryžiaus žemyn,; žalią mygtuką su brūkšneliu, jei norite nutolinti; arba žalių rodyklių gretimoms žemėlapius.


METAR-TAF: